sensor_id;sensor_type;location;lat;lon;timestamp;temperature;humidity
15947;DHT22;8072;52.554;7.966;2022-08-21T00:00:26;16.30;99.90
15947;DHT22;8072;52.554;7.966;2022-08-21T00:02:57;16.10;99.90
15947;DHT22;8072;52.554;7.966;2022-08-21T00:05:26;16.00;99.90
15947;DHT22;8072;52.554;7.966;2022-08-21T00:07:52;16.00;99.90
15947;DHT22;8072;52.554;7.966;2022-08-21T00:10:18;16.00;99.90
15947;DHT22;8072;52.554;7.966;2022-08-21T00:12:45;16.00;99.90
15947;DHT22;8072;52.554;7.966;2022-08-21T00:15:14;16.00;99.90
15947;DHT22;8072;52.554;7.966;2022-08-21T00:17:40;16.00;99.90
15947;DHT22;8072;52.554;7.966;2022-08-21T00:20:09;16.10;99.90
15947;DHT22;8072;52.554;7.966;2022-08-21T00:22:35;16.10;99.90
15947;DHT22;8072;52.554;7.966;2022-08-21T00:25:02;16.10;99.90
15947;DHT22;8072;52.554;7.966;2022-08-21T00:27:28;16.20;99.90
15947;DHT22;8072;52.554;7.966;2022-08-21T00:29:54;16.20;99.90
15947;DHT22;8072;52.554;7.966;2022-08-21T00:32:25;16.20;99.90
15947;DHT22;8072;52.554;7.966;2022-08-21T00:34:53;16.20;99.90
15947;DHT22;8072;52.554;7.966;2022-08-21T00:37:19;16.30;99.90
15947;DHT22;8072;52.554;7.966;2022-08-21T00:39:45;16.30;99.90
15947;DHT22;8072;52.554;7.966;2022-08-21T00:42:11;16.30;99.90
15947;DHT22;8072;52.554;7.966;2022-08-21T00:44:42;16.30;99.90
15947;DHT22;8072;52.554;7.966;2022-08-21T00:47:08;16.30;99.90
15947;DHT22;8072;52.554;7.966;2022-08-21T00:49:34;16.30;99.90
15947;DHT22;8072;52.554;7.966;2022-08-21T00:52:01;16.30;99.90
15947;DHT22;8072;52.554;7.966;2022-08-21T00:54:29;16.30;99.90
15947;DHT22;8072;52.554;7.966;2022-08-21T00:57:13;16.20;99.90
15947;DHT22;8072;52.554;7.966;2022-08-21T00:59:40;16.20;99.90
15947;DHT22;8072;52.554;7.966;2022-08-21T01:02:08;16.20;99.90
15947;DHT22;8072;52.554;7.966;2022-08-21T01:04:34;16.20;99.90
15947;DHT22;8072;52.554;7.966;2022-08-21T01:07:00;16.20;99.90
15947;DHT22;8072;52.554;7.966;2022-08-21T01:09:26;16.20;99.90
15947;DHT22;8072;52.554;7.966;2022-08-21T01:11:52;16.20;99.90
15947;DHT22;8072;52.554;7.966;2022-08-21T01:14:19;16.20;99.90
15947;DHT22;8072;52.554;7.966;2022-08-21T01:16:50;16.10;99.90
15947;DHT22;8072;52.554;7.966;2022-08-21T01:19:19;16.00;99.90
15947;DHT22;8072;52.554;7.966;2022-08-21T01:21:46;15.90;99.90
15947;DHT22;8072;52.554;7.966;2022-08-21T01:24:12;15.90;99.90
15947;DHT22;8072;52.554;7.966;2022-08-21T01:26:39;15.90;99.90
15947;DHT22;8072;52.554;7.966;2022-08-21T01:31:38;15.90;99.90
15947;DHT22;8072;52.554;7.966;2022-08-21T01:34:04;15.90;99.90
15947;DHT22;8072;52.554;7.966;2022-08-21T01:36:30;15.80;99.90
15947;DHT22;8072;52.554;7.966;2022-08-21T01:38:57;15.90;99.90
15947;DHT22;8072;52.554;7.966;2022-08-21T01:41:22;15.90;99.90
15947;DHT22;8072;52.554;7.966;2022-08-21T01:43:48;15.90;99.90
15947;DHT22;8072;52.554;7.966;2022-08-21T01:46:14;15.80;99.90
15947;DHT22;8072;52.554;7.966;2022-08-21T01:48:40;15.80;99.90
15947;DHT22;8072;52.554;7.966;2022-08-21T01:51:07;15.70;99.90
15947;DHT22;8072;52.554;7.966;2022-08-21T01:53:34;15.60;99.90
15947;DHT22;8072;52.554;7.966;2022-08-21T01:56:04;15.60;99.90
15947;DHT22;8072;52.554;7.966;2022-08-21T01:58:31;15.50;99.90
15947;DHT22;8072;52.554;7.966;2022-08-21T02:00:59;15.50;99.90
15947;DHT22;8072;52.554;7.966;2022-08-21T02:03:28;15.50;99.90
15947;DHT22;8072;52.554;7.966;2022-08-21T02:05:54;15.50;99.90
15947;DHT22;8072;52.554;7.966;2022-08-21T02:08:20;15.50;99.90
15947;DHT22;8072;52.554;7.966;2022-08-21T02:10:49;15.50;99.90
15947;DHT22;8072;52.554;7.966;2022-08-21T02:13:16;15.50;99.90
15947;DHT22;8072;52.554;7.966;2022-08-21T02:15:42;15.60;99.90
15947;DHT22;8072;52.554;7.966;2022-08-21T02:18:08;15.60;99.90
15947;DHT22;8072;52.554;7.966;2022-08-21T02:20:37;15.60;99.90
15947;DHT22;8072;52.554;7.966;2022-08-21T02:23:05;15.50;99.90
15947;DHT22;8072;52.554;7.966;2022-08-21T02:25:32;15.50;99.90
15947;DHT22;8072;52.554;7.966;2022-08-21T02:28:02;15.50;99.90
15947;DHT22;8072;52.554;7.966;2022-08-21T02:30:33;15.50;99.90
15947;DHT22;8072;52.554;7.966;2022-08-21T02:32:59;15.50;99.90
15947;DHT22;8072;52.554;7.966;2022-08-21T02:35:26;15.50;99.90
15947;DHT22;8072;52.554;7.966;2022-08-21T02:38:05;15.50;99.90
15947;DHT22;8072;52.554;7.966;2022-08-21T02:40:34;15.40;99.90
15947;DHT22;8072;52.554;7.966;2022-08-21T02:43:00;15.40;99.90
15947;DHT22;8072;52.554;7.966;2022-08-21T02:45:27;15.30;99.90
15947;DHT22;8072;52.554;7.966;2022-08-21T02:47:56;15.30;99.90
15947;DHT22;8072;52.554;7.966;2022-08-21T02:50:33;15.30;99.90
15947;DHT22;8072;52.554;7.966;2022-08-21T02:53:00;15.30;99.90
15947;DHT22;8072;52.554;7.966;2022-08-21T02:55:27;15.30;99.90
15947;DHT22;8072;52.554;7.966;2022-08-21T02:57:55;15.30;99.90
15947;DHT22;8072;52.554;7.966;2022-08-21T03:00:25;15.30;99.90
15947;DHT22;8072;52.554;7.966;2022-08-21T03:02:52;15.30;99.90
15947;DHT22;8072;52.554;7.966;2022-08-21T03:05:19;15.30;99.90
15947;DHT22;8072;52.554;7.966;2022-08-21T03:07:46;15.30;99.90
15947;DHT22;8072;52.554;7.966;2022-08-21T03:10:14;15.30;99.90
15947;DHT22;8072;52.554;7.966;2022-08-21T03:12:39;15.30;99.90
15947;DHT22;8072;52.554;7.966;2022-08-21T03:15:08;15.30;99.90
15947;DHT22;8072;52.554;7.966;2022-08-21T03:17:35;15.30;99.90
15947;DHT22;8072;52.554;7.966;2022-08-21T03:20:02;15.30;99.90
15947;DHT22;8072;52.554;7.966;2022-08-21T03:22:29;15.20;99.90
15947;DHT22;8072;52.554;7.966;2022-08-21T03:24:56;15.20;99.90
15947;DHT22;8072;52.554;7.966;2022-08-21T03:27:23;15.20;99.90
15947;DHT22;8072;52.554;7.966;2022-08-21T03:29:50;15.20;99.90
15947;DHT22;8072;52.554;7.966;2022-08-21T03:32:15;15.20;99.90
15947;DHT22;8072;52.554;7.966;2022-08-21T03:34:41;15.20;99.90
15947;DHT22;8072;52.554;7.966;2022-08-21T03:37:10;15.20;99.90
15947;DHT22;8072;52.554;7.966;2022-08-21T03:39:36;15.20;99.90
15947;DHT22;8072;52.554;7.966;2022-08-21T03:42:02;15.20;99.90
15947;DHT22;8072;52.554;7.966;2022-08-21T03:44:28;15.10;99.90
15947;DHT22;8072;52.554;7.966;2022-08-21T03:46:55;15.20;99.90
15947;DHT22;8072;52.554;7.966;2022-08-21T03:49:21;15.10;99.90
15947;DHT22;8072;52.554;7.966;2022-08-21T03:51:47;15.10;99.90
15947;DHT22;8072;52.554;7.966;2022-08-21T03:54:13;15.00;99.90
15947;DHT22;8072;52.554;7.966;2022-08-21T03:56:39;15.00;99.90
15947;DHT22;8072;52.554;7.966;2022-08-21T03:59:05;15.00;99.90
15947;DHT22;8072;52.554;7.966;2022-08-21T04:01:31;15.00;99.90
15947;DHT22;8072;52.554;7.966;2022-08-21T04:03:57;15.00;99.90
15947;DHT22;8072;52.554;7.966;2022-08-21T04:06:24;14.90;99.90
15947;DHT22;8072;52.554;7.966;2022-08-21T04:08:52;14.90;99.90
15947;DHT22;8072;52.554;7.966;2022-08-21T04:11:18;14.90;99.90
15947;DHT22;8072;52.554;7.966;2022-08-21T04:13:45;14.90;99.90
15947;DHT22;8072;52.554;7.966;2022-08-21T04:16:12;14.90;99.90
15947;DHT22;8072;52.554;7.966;2022-08-21T04:18:48;14.80;99.90
15947;DHT22;8072;52.554;7.966;2022-08-21T04:21:14;14.80;99.90
15947;DHT22;8072;52.554;7.966;2022-08-21T04:23:40;14.80;99.90
15947;DHT22;8072;52.554;7.966;2022-08-21T04:26:06;14.80;99.90
15947;DHT22;8072;52.554;7.966;2022-08-21T04:28:32;14.80;99.90
15947;DHT22;8072;52.554;7.966;2022-08-21T04:31:02;14.80;99.90
15947;DHT22;8072;52.554;7.966;2022-08-21T04:33:28;14.80;99.90
15947;DHT22;8072;52.554;7.966;2022-08-21T04:35:54;14.80;99.90
15947;DHT22;8072;52.554;7.966;2022-08-21T04:38:20;14.80;99.90
15947;DHT22;8072;52.554;7.966;2022-08-21T04:40:48;14.70;99.90
15947;DHT22;8072;52.554;7.966;2022-08-21T04:43:14;14.70;99.90
15947;DHT22;8072;52.554;7.966;2022-08-21T04:45:44;14.60;99.90
15947;DHT22;8072;52.554;7.966;2022-08-21T04:48:13;14.50;99.90
15947;DHT22;8072;52.554;7.966;2022-08-21T04:53:26;14.30;99.90
15947;DHT22;8072;52.554;7.966;2022-08-21T04:55:54;14.20;99.90
15947;DHT22;8072;52.554;7.966;2022-08-21T04:58:22;14.10;99.90
15947;DHT22;8072;52.554;7.966;2022-08-21T05:00:53;14.10;99.90
15947;DHT22;8072;52.554;7.966;2022-08-21T05:03:19;14.10;99.90
15947;DHT22;8072;52.554;7.966;2022-08-21T05:05:47;14.20;99.90
15947;DHT22;8072;52.554;7.966;2022-08-21T05:08:16;14.30;99.90
15947;DHT22;8072;52.554;7.966;2022-08-21T05:10:43;14.30;99.90
15947;DHT22;8072;52.554;7.966;2022-08-21T05:13:11;14.30;99.90
15947;DHT22;8072;52.554;7.966;2022-08-21T05:15:39;14.40;99.90
15947;DHT22;8072;52.554;7.966;2022-08-21T05:18:05;14.40;99.90
15947;DHT22;8072;52.554;7.966;2022-08-21T05:20:32;14.40;99.90
15947;DHT22;8072;52.554;7.966;2022-08-21T05:23:00;14.40;99.90
15947;DHT22;8072;52.554;7.966;2022-08-21T05:25:27;14.50;99.90
15947;DHT22;8072;52.554;7.966;2022-08-21T05:27:53;14.50;99.90
15947;DHT22;8072;52.554;7.966;2022-08-21T05:30:20;14.50;99.90
15947;DHT22;8072;52.554;7.966;2022-08-21T05:32:46;14.50;99.90
15947;DHT22;8072;52.554;7.966;2022-08-21T05:35:13;14.60;99.90
15947;DHT22;8072;52.554;7.966;2022-08-21T05:37:39;14.60;99.90
15947;DHT22;8072;52.554;7.966;2022-08-21T05:40:06;14.70;99.90
15947;DHT22;8072;52.554;7.966;2022-08-21T05:42:33;14.80;99.90
15947;DHT22;8072;52.554;7.966;2022-08-21T05:44:59;14.80;99.90
15947;DHT22;8072;52.554;7.966;2022-08-21T05:47:25;14.90;99.90
15947;DHT22;8072;52.554;7.966;2022-08-21T05:49:50;14.90;99.90
15947;DHT22;8072;52.554;7.966;2022-08-21T05:52:20;14.90;99.90
15947;DHT22;8072;52.554;7.966;2022-08-21T05:54:46;15.00;99.90
15947;DHT22;8072;52.554;7.966;2022-08-21T05:57:12;15.00;99.90
15947;DHT22;8072;52.554;7.966;2022-08-21T05:59:38;15.10;99.90
15947;DHT22;8072;52.554;7.966;2022-08-21T06:02:04;15.10;99.90
15947;DHT22;8072;52.554;7.966;2022-08-21T06:04:30;15.20;99.90
15947;DHT22;8072;52.554;7.966;2022-08-21T06:06:55;15.30;99.90
15947;DHT22;8072;52.554;7.966;2022-08-21T06:09:21;15.30;99.90
15947;DHT22;8072;52.554;7.966;2022-08-21T06:11:47;15.30;99.90
15947;DHT22;8072;52.554;7.966;2022-08-21T06:14:16;15.40;99.90
15947;DHT22;8072;52.554;7.966;2022-08-21T06:16:42;15.50;99.90
15947;DHT22;8072;52.554;7.966;2022-08-21T06:19:08;15.60;99.90
15947;DHT22;8072;52.554;7.966;2022-08-21T06:21:33;15.60;99.90
15947;DHT22;8072;52.554;7.966;2022-08-21T06:23:59;15.70;99.90
15947;DHT22;8072;52.554;7.966;2022-08-21T06:26:25;15.70;99.90
15947;DHT22;8072;52.554;7.966;2022-08-21T06:28:51;15.80;99.90
15947;DHT22;8072;52.554;7.966;2022-08-21T06:31:22;15.90;99.90
15947;DHT22;8072;52.554;7.966;2022-08-21T06:33:49;16.00;99.90
15947;DHT22;8072;52.554;7.966;2022-08-21T06:36:18;16.10;99.90
15947;DHT22;8072;52.554;7.966;2022-08-21T06:38:44;16.10;99.90
15947;DHT22;8072;52.554;7.966;2022-08-21T06:41:11;16.20;99.90
15947;DHT22;8072;52.554;7.966;2022-08-21T06:43:37;16.30;99.90
15947;DHT22;8072;52.554;7.966;2022-08-21T06:46:03;16.40;99.90
15947;DHT22;8072;52.554;7.966;2022-08-21T06:48:29;16.50;99.90
15947;DHT22;8072;52.554;7.966;2022-08-21T06:50:58;16.60;99.90
15947;DHT22;8072;52.554;7.966;2022-08-21T06:53:24;16.70;99.90
15947;DHT22;8072;52.554;7.966;2022-08-21T06:55:50;16.80;99.90
15947;DHT22;8072;52.554;7.966;2022-08-21T06:58:16;16.90;99.90
15947;DHT22;8072;52.554;7.966;2022-08-21T07:00:46;17.00;99.90
15947;DHT22;8072;52.554;7.966;2022-08-21T07:03:39;17.10;99.90
15947;DHT22;8072;52.554;7.966;2022-08-21T07:06:06;17.30;99.90
15947;DHT22;8072;52.554;7.966;2022-08-21T07:08:34;17.40;99.90
15947;DHT22;8072;52.554;7.966;2022-08-21T07:11:02;17.60;99.90
15947;DHT22;8072;52.554;7.966;2022-08-21T07:13:29;17.80;99.90
15947;DHT22;8072;52.554;7.966;2022-08-21T07:15:55;18.00;99.90
15947;DHT22;8072;52.554;7.966;2022-08-21T07:18:20;18.10;99.90
15947;DHT22;8072;52.554;7.966;2022-08-21T07:20:46;18.20;99.90
15947;DHT22;8072;52.554;7.966;2022-08-21T07:23:22;18.30;99.90
15947;DHT22;8072;52.554;7.966;2022-08-21T07:25:48;18.40;99.90
15947;DHT22;8072;52.554;7.966;2022-08-21T07:28:14;18.50;99.90
15947;DHT22;8072;52.554;7.966;2022-08-21T07:30:40;18.60;99.90
15947;DHT22;8072;52.554;7.966;2022-08-21T07:33:06;18.70;99.90
15947;DHT22;8072;52.554;7.966;2022-08-21T07:35:32;18.70;99.90
15947;DHT22;8072;52.554;7.966;2022-08-21T07:37:58;18.70;99.90
15947;DHT22;8072;52.554;7.966;2022-08-21T07:40:25;18.80;99.90
15947;DHT22;8072;52.554;7.966;2022-08-21T07:42:51;18.90;99.90
15947;DHT22;8072;52.554;7.966;2022-08-21T07:45:20;19.00;99.90
15947;DHT22;8072;52.554;7.966;2022-08-21T07:47:46;19.10;99.90
15947;DHT22;8072;52.554;7.966;2022-08-21T07:50:14;19.20;99.90
15947;DHT22;8072;52.554;7.966;2022-08-21T07:52:41;19.20;99.90
15947;DHT22;8072;52.554;7.966;2022-08-21T07:55:12;19.20;99.90
15947;DHT22;8072;52.554;7.966;2022-08-21T07:57:39;19.30;99.90
15947;DHT22;8072;52.554;7.966;2022-08-21T08:00:08;19.50;99.90
15947;DHT22;8072;52.554;7.966;2022-08-21T08:02:34;19.60;99.90
15947;DHT22;8072;52.554;7.966;2022-08-21T08:05:06;19.70;99.90
15947;DHT22;8072;52.554;7.966;2022-08-21T08:07:32;19.70;99.90
15947;DHT22;8072;52.554;7.966;2022-08-21T08:09:58;19.70;99.90
15947;DHT22;8072;52.554;7.966;2022-08-21T08:12:24;19.80;99.90
15947;DHT22;8072;52.554;7.966;2022-08-21T08:14:58;19.80;99.90
15947;DHT22;8072;52.554;7.966;2022-08-21T08:17:24;19.90;99.90
15947;DHT22;8072;52.554;7.966;2022-08-21T08:19:51;20.00;99.90
15947;DHT22;8072;52.554;7.966;2022-08-21T08:22:19;20.00;99.90
15947;DHT22;8072;52.554;7.966;2022-08-21T08:24:46;20.20;99.90
15947;DHT22;8072;52.554;7.966;2022-08-21T08:27:12;20.40;99.90
15947;DHT22;8072;52.554;7.966;2022-08-21T08:29:38;20.50;99.90
15947;DHT22;8072;52.554;7.966;2022-08-21T08:32:05;20.50;99.90
15947;DHT22;8072;52.554;7.966;2022-08-21T08:34:36;20.60;99.90
15947;DHT22;8072;52.554;7.966;2022-08-21T08:37:02;20.60;99.90
15947;DHT22;8072;52.554;7.966;2022-08-21T08:39:29;20.70;99.90
15947;DHT22;8072;52.554;7.966;2022-08-21T08:42:14;20.80;99.90
15947;DHT22;8072;52.554;7.966;2022-08-21T08:44:42;20.90;99.90
15947;DHT22;8072;52.554;7.966;2022-08-21T08:47:09;21.00;99.90
15947;DHT22;8072;52.554;7.966;2022-08-21T08:57:28;21.20;99.90
15947;DHT22;8072;52.554;7.966;2022-08-21T08:59:59;21.30;99.90
15947;DHT22;8072;52.554;7.966;2022-08-21T09:02:25;21.40;99.90
15947;DHT22;8072;52.554;7.966;2022-08-21T09:04:54;21.50;99.90
15947;DHT22;8072;52.554;7.966;2022-08-21T09:10:29;21.70;99.90
15947;DHT22;8072;52.554;7.966;2022-08-21T09:13:11;21.80;99.90
15947;DHT22;8072;52.554;7.966;2022-08-21T09:24:05;22.00;99.90
15947;DHT22;8072;52.554;7.966;2022-08-21T09:27:07;21.90;99.90
15947;DHT22;8072;52.554;7.966;2022-08-21T09:29:36;21.90;99.90
15947;DHT22;8072;52.554;7.966;2022-08-21T09:32:05;21.90;99.90
15947;DHT22;8072;52.554;7.966;2022-08-21T09:34:34;22.00;99.90
15947;DHT22;8072;52.554;7.966;2022-08-21T09:37:01;22.20;99.90
15947;DHT22;8072;52.554;7.966;2022-08-21T09:39:37;22.20;99.90
15947;DHT22;8072;52.554;7.966;2022-08-21T09:42:05;22.20;99.90
15947;DHT22;8072;52.554;7.966;2022-08-21T09:44:35;22.10;99.90
15947;DHT22;8072;52.554;7.966;2022-08-21T09:47:06;21.90;99.90
15947;DHT22;8072;52.554;7.966;2022-08-21T09:49:38;21.90;99.90
15947;DHT22;8072;52.554;7.966;2022-08-21T09:52:17;21.90;99.90
15947;DHT22;8072;52.554;7.966;2022-08-21T09:54:46;21.90;99.90
15947;DHT22;8072;52.554;7.966;2022-08-21T09:57:18;21.90;99.90
15947;DHT22;8072;52.554;7.966;2022-08-21T10:00:19;21.80;99.90
15947;DHT22;8072;52.554;7.966;2022-08-21T10:02:45;21.90;99.90
15947;DHT22;8072;52.554;7.966;2022-08-21T10:05:23;21.90;99.90
15947;DHT22;8072;52.554;7.966;2022-08-21T10:07:49;21.90;99.90
15947;DHT22;8072;52.554;7.966;2022-08-21T10:10:25;22.00;99.90
15947;DHT22;8072;52.554;7.966;2022-08-21T10:18:24;22.20;99.90
15947;DHT22;8072;52.554;7.966;2022-08-21T10:21:02;22.20;99.90
15947;DHT22;8072;52.554;7.966;2022-08-21T10:26:56;22.70;99.90
15947;DHT22;8072;52.554;7.966;2022-08-21T10:48:58;24.00;99.90
15947;DHT22;8072;52.554;7.966;2022-08-21T10:54:19;24.30;99.90
15947;DHT22;8072;52.554;7.966;2022-08-21T10:56:53;24.40;99.90
15947;DHT22;8072;52.554;7.966;2022-08-21T10:59:28;24.40;99.90
15947;DHT22;8072;52.554;7.966;2022-08-21T11:02:19;24.50;99.90
15947;DHT22;8072;52.554;7.966;2022-08-21T11:07:37;24.40;99.90
15947;DHT22;8072;52.554;7.966;2022-08-21T11:10:13;24.60;99.90
15947;DHT22;8072;52.554;7.966;2022-08-21T11:12:46;24.60;99.90
15947;DHT22;8072;52.554;7.966;2022-08-21T11:18:31;24.70;99.90
15947;DHT22;8072;52.554;7.966;2022-08-21T11:23:46;24.70;99.90
15947;DHT22;8072;52.554;7.966;2022-08-21T11:26:39;24.60;99.90
15947;DHT22;8072;52.554;7.966;2022-08-21T11:29:17;24.40;99.90
15947;DHT22;8072;52.554;7.966;2022-08-21T11:34:44;24.80;99.90
15947;DHT22;8072;52.554;7.966;2022-08-21T11:45:55;25.60;99.90
15947;DHT22;8072;52.554;7.966;2022-08-21T11:51:21;25.80;99.90
15947;DHT22;8072;52.554;7.966;2022-08-21T11:54:05;25.60;99.90
15947;DHT22;8072;52.554;7.966;2022-08-21T11:56:39;25.40;99.90
15947;DHT22;8072;52.554;7.966;2022-08-21T11:59:20;25.40;99.90
15947;DHT22;8072;52.554;7.966;2022-08-21T12:01:48;25.30;99.90
15947;DHT22;8072;52.554;7.966;2022-08-21T12:04:26;25.10;99.90
15947;DHT22;8072;52.554;7.966;2022-08-21T12:06:53;25.20;99.90
15947;DHT22;8072;52.554;7.966;2022-08-21T12:14:43;25.80;99.90
15947;DHT22;8072;52.554;7.966;2022-08-21T12:17:18;25.90;99.90
15947;DHT22;8072;52.554;7.966;2022-08-21T12:19:45;25.80;99.90
15947;DHT22;8072;52.554;7.966;2022-08-21T12:22:21;25.90;99.90
15947;DHT22;8072;52.554;7.966;2022-08-21T12:24:50;26.10;99.90
15947;DHT22;8072;52.554;7.966;2022-08-21T12:28:35;26.30;99.90
15947;DHT22;8072;52.554;7.966;2022-08-21T12:30:39;26.40;99.90
15947;DHT22;8072;52.554;7.966;2022-08-21T12:35:44;26.80;99.90
15947;DHT22;8072;52.554;7.966;2022-08-21T12:38:20;26.80;99.90
15947;DHT22;8072;52.554;7.966;2022-08-21T12:41:12;26.80;99.90
15947;DHT22;8072;52.554;7.966;2022-08-21T12:43:47;26.90;99.90
15947;DHT22;8072;52.554;7.966;2022-08-21T12:46:26;27.00;99.90
15947;DHT22;8072;52.554;7.966;2022-08-21T12:49:00;27.00;99.90
15947;DHT22;8072;52.554;7.966;2022-08-21T12:54:31;27.10;99.90
15947;DHT22;8072;52.554;7.966;2022-08-21T12:57:06;27.10;99.90
15947;DHT22;8072;52.554;7.966;2022-08-21T12:59:37;27.00;99.90
15947;DHT22;8072;52.554;7.966;2022-08-21T13:02:15;27.10;99.90
15947;DHT22;8072;52.554;7.966;2022-08-21T13:04:42;27.10;99.90
15947;DHT22;8072;52.554;7.966;2022-08-21T13:07:16;27.10;99.90
15947;DHT22;8072;52.554;7.966;2022-08-21T13:09:53;27.00;99.90
15947;DHT22;8072;52.554;7.966;2022-08-21T13:12:21;26.70;99.90
15947;DHT22;8072;52.554;7.966;2022-08-21T13:14:49;26.40;99.90
15947;DHT22;8072;52.554;7.966;2022-08-21T13:17:21;26.30;99.90
15947;DHT22;8072;52.554;7.966;2022-08-21T13:20:19;26.40;99.90
15947;DHT22;8072;52.554;7.966;2022-08-21T13:22:46;26.70;99.90
15947;DHT22;8072;52.554;7.966;2022-08-21T13:25:17;26.80;99.90
15947;DHT22;8072;52.554;7.966;2022-08-21T13:28:09;26.90;99.90
15947;DHT22;8072;52.554;7.966;2022-08-21T13:30:37;26.80;99.90
15947;DHT22;8072;52.554;7.966;2022-08-21T13:33:05;26.90;99.90
15947;DHT22;8072;52.554;7.966;2022-08-21T13:35:52;26.90;99.90
15947;DHT22;8072;52.554;7.966;2022-08-21T13:38:29;27.10;99.90
15947;DHT22;8072;52.554;7.966;2022-08-21T13:40:59;27.10;99.90
15947;DHT22;8072;52.554;7.966;2022-08-21T13:43:37;27.10;99.90
15947;DHT22;8072;52.554;7.966;2022-08-21T13:46:09;27.10;99.90
15947;DHT22;8072;52.554;7.966;2022-08-21T13:48:36;27.20;99.90
15947;DHT22;8072;52.554;7.966;2022-08-21T13:51:03;27.40;99.90
15947;DHT22;8072;52.554;7.966;2022-08-21T13:53:33;27.30;99.90
15947;DHT22;8072;52.554;7.966;2022-08-21T13:56:00;27.40;99.90
15947;DHT22;8072;52.554;7.966;2022-08-21T13:58:32;27.50;99.90
15947;DHT22;8072;52.554;7.966;2022-08-21T14:01:00;27.30;99.90
15947;DHT22;8072;52.554;7.966;2022-08-21T14:03:36;27.20;99.90
15947;DHT22;8072;52.554;7.966;2022-08-21T14:06:15;27.10;99.90
15947;DHT22;8072;52.554;7.966;2022-08-21T14:08:42;27.00;99.90
15947;DHT22;8072;52.554;7.966;2022-08-21T14:11:13;27.00;99.90
15947;DHT22;8072;52.554;7.966;2022-08-21T14:13:45;27.30;99.90
15947;DHT22;8072;52.554;7.966;2022-08-21T14:16:20;27.20;99.90
15947;DHT22;8072;52.554;7.966;2022-08-21T14:19:15;27.10;99.90
15947;DHT22;8072;52.554;7.966;2022-08-21T14:21:43;26.90;99.90
15947;DHT22;8072;52.554;7.966;2022-08-21T14:24:23;26.70;99.90
15947;DHT22;8072;52.554;7.966;2022-08-21T14:26:52;26.70;99.90
15947;DHT22;8072;52.554;7.966;2022-08-21T14:29:21;26.70;99.90
15947;DHT22;8072;52.554;7.966;2022-08-21T14:31:53;26.80;99.90
15947;DHT22;8072;52.554;7.966;2022-08-21T14:34:22;26.70;99.90
15947;DHT22;8072;52.554;7.966;2022-08-21T14:36:48;26.60;99.90
15947;DHT22;8072;52.554;7.966;2022-08-21T14:39:15;26.60;99.90
15947;DHT22;8072;52.554;7.966;2022-08-21T14:41:41;26.50;99.90
15947;DHT22;8072;52.554;7.966;2022-08-21T14:44:08;26.50;99.90
15947;DHT22;8072;52.554;7.966;2022-08-21T14:46:35;26.60;99.90
15947;DHT22;8072;52.554;7.966;2022-08-21T14:49:02;26.80;99.90
15947;DHT22;8072;52.554;7.966;2022-08-21T14:51:28;26.70;99.90
15947;DHT22;8072;52.554;7.966;2022-08-21T14:53:54;26.40;99.90
15947;DHT22;8072;52.554;7.966;2022-08-21T14:56:20;26.10;99.90
15947;DHT22;8072;52.554;7.966;2022-08-21T14:58:49;25.90;99.90
15947;DHT22;8072;52.554;7.966;2022-08-21T15:01:19;25.90;99.90
15947;DHT22;8072;52.554;7.966;2022-08-21T15:03:46;25.90;99.90
15947;DHT22;8072;52.554;7.966;2022-08-21T15:06:13;26.00;99.90
15947;DHT22;8072;52.554;7.966;2022-08-21T15:08:40;26.10;99.90
15947;DHT22;8072;52.554;7.966;2022-08-21T15:11:07;26.30;99.90
15947;DHT22;8072;52.554;7.966;2022-08-21T15:13:34;26.40;99.90
15947;DHT22;8072;52.554;7.966;2022-08-21T15:16:02;26.50;99.90
15947;DHT22;8072;52.554;7.966;2022-08-21T15:18:29;26.40;99.90
15947;DHT22;8072;52.554;7.966;2022-08-21T15:20:56;26.40;99.90
15947;DHT22;8072;52.554;7.966;2022-08-21T15:23:22;26.40;99.90
15947;DHT22;8072;52.554;7.966;2022-08-21T15:25:49;26.30;99.90
15947;DHT22;8072;52.554;7.966;2022-08-21T15:28:16;26.30;99.90
15947;DHT22;8072;52.554;7.966;2022-08-21T15:30:45;26.30;99.90
15947;DHT22;8072;52.554;7.966;2022-08-21T15:33:11;26.20;99.90
15947;DHT22;8072;52.554;7.966;2022-08-21T15:35:38;26.30;99.90
15947;DHT22;8072;52.554;7.966;2022-08-21T15:38:04;26.30;99.90
15947;DHT22;8072;52.554;7.966;2022-08-21T15:40:30;26.30;99.90
15947;DHT22;8072;52.554;7.966;2022-08-21T15:42:59;26.30;99.90
15947;DHT22;8072;52.554;7.966;2022-08-21T15:45:25;26.40;99.90
15947;DHT22;8072;52.554;7.966;2022-08-21T15:47:52;26.30;99.90
15947;DHT22;8072;52.554;7.966;2022-08-21T15:50:18;26.30;99.90
15947;DHT22;8072;52.554;7.966;2022-08-21T15:52:44;26.30;99.90
15947;DHT22;8072;52.554;7.966;2022-08-21T15:55:11;26.30;99.90
15947;DHT22;8072;52.554;7.966;2022-08-21T15:57:42;26.30;99.90
15947;DHT22;8072;52.554;7.966;2022-08-21T16:00:32;26.20;99.90
15947;DHT22;8072;52.554;7.966;2022-08-21T16:02:59;26.10;99.90
15947;DHT22;8072;52.554;7.966;2022-08-21T16:05:26;26.00;99.90
15947;DHT22;8072;52.554;7.966;2022-08-21T16:07:52;25.90;99.90
15947;DHT22;8072;52.554;7.966;2022-08-21T16:10:22;25.80;99.90
15947;DHT22;8072;52.554;7.966;2022-08-21T16:12:57;25.70;99.90
15947;DHT22;8072;52.554;7.966;2022-08-21T16:15:25;25.60;99.90
15947;DHT22;8072;52.554;7.966;2022-08-21T16:17:53;25.60;99.90
15947;DHT22;8072;52.554;7.966;2022-08-21T16:20:26;25.70;99.90
15947;DHT22;8072;52.554;7.966;2022-08-21T16:22:53;25.70;99.90
15947;DHT22;8072;52.554;7.966;2022-08-21T16:25:21;25.70;99.90
15947;DHT22;8072;52.554;7.966;2022-08-21T16:27:51;25.70;99.90
15947;DHT22;8072;52.554;7.966;2022-08-21T16:30:19;25.60;99.90
15947;DHT22;8072;52.554;7.966;2022-08-21T16:32:45;25.60;99.90
15947;DHT22;8072;52.554;7.966;2022-08-21T16:35:14;25.60;99.90
15947;DHT22;8072;52.554;7.966;2022-08-21T16:37:40;25.50;99.90
15947;DHT22;8072;52.554;7.966;2022-08-21T16:40:07;25.40;99.90
15947;DHT22;8072;52.554;7.966;2022-08-21T16:42:36;25.30;99.90
15947;DHT22;8072;52.554;7.966;2022-08-21T16:45:05;25.20;99.90
15947;DHT22;8072;52.554;7.966;2022-08-21T16:47:31;25.10;99.90
15947;DHT22;8072;52.554;7.966;2022-08-21T16:49:57;25.10;99.90
15947;DHT22;8072;52.554;7.966;2022-08-21T16:52:23;25.00;99.90
15947;DHT22;8072;52.554;7.966;2022-08-21T16:54:49;24.90;99.90
15947;DHT22;8072;52.554;7.966;2022-08-21T16:57:16;24.90;99.90
15947;DHT22;8072;52.554;7.966;2022-08-21T16:59:42;24.80;99.90
15947;DHT22;8072;52.554;7.966;2022-08-21T17:02:36;24.80;99.90
15947;DHT22;8072;52.554;7.966;2022-08-21T17:05:03;24.70;99.90
15947;DHT22;8072;52.554;7.966;2022-08-21T17:07:31;24.80;99.90
15947;DHT22;8072;52.554;7.966;2022-08-21T17:09:57;24.70;99.90
15947;DHT22;8072;52.554;7.966;2022-08-21T17:12:23;24.70;99.90
15947;DHT22;8072;52.554;7.966;2022-08-21T17:14:49;24.70;99.90
15947;DHT22;8072;52.554;7.966;2022-08-21T17:17:15;24.60;99.90
15947;DHT22;8072;52.554;7.966;2022-08-21T17:19:42;24.60;99.90
15947;DHT22;8072;52.554;7.966;2022-08-21T17:22:08;24.60;99.90
15947;DHT22;8072;52.554;7.966;2022-08-21T17:24:35;24.60;99.90
15947;DHT22;8072;52.554;7.966;2022-08-21T17:27:01;24.50;99.90